Time;durP1;ratioP1;P1;durP2;ratioP2;P2;SDS_P1;SDS_P2;PMS_P1;PMS_P2;Temp;Humidity;BMP_temperature;BMP_pressure;BME280_temperature;BME280_humidity;BME280_pressure;Samples;Min_cycle;Max_cycle;Signal;HPM_P1;HPM_P2
2021/08/25 00:00:12;0.00;0.00;0.62;0.00;0.00;0.62;3.23;2.53;;;26.90;30.00;;;;;;2252805;61;20355;-65
2021/08/25 00:03:00;0.00;0.00;0.62;0.00;0.00;0.62;4.13;2.67;;;26.90;30.00;;;;;;2253458;61;20468;-62
2021/08/25 00:05:45;0.00;0.00;0.62;0.00;0.00;0.62;3.20;2.73;;;26.90;30.00;;;;;;2252700;61;20399;-64
2021/08/25 00:08:29;0.00;0.00;0.62;0.00;0.00;0.62;2.47;2.27;;;26.90;30.00;;;;;;2253020;61;20442;-65
2021/08/25 00:11:14;0.00;0.00;0.62;0.00;0.00;0.62;3.37;2.60;;;26.80;29.90;;;;;;2253196;61;20610;-63
2021/08/25 00:13:59;0.00;0.00;0.62;0.00;0.00;0.62;4.03;3.27;;;26.80;30.00;;;;;;2252589;61;20399;-66
2021/08/25 00:16:44;0.00;0.00;0.62;0.00;0.00;0.62;3.93;2.93;;;26.90;30.00;;;;;;2252871;61;20363;-62
2021/08/25 00:19:29;0.00;0.00;0.62;0.00;0.00;0.62;3.07;2.77;;;26.80;30.00;;;;;;2252928;61;20727;-62
2021/08/25 00:22:14;0.00;0.00;0.62;0.00;0.00;0.62;3.50;2.80;;;26.80;30.00;;;;;;2252761;61;20412;-62
2021/08/25 00:24:59;0.00;0.00;0.62;0.00;0.00;0.62;3.87;2.77;;;26.80;30.00;;;;;;2253162;61;20391;-64
2021/08/25 00:27:43;0.00;0.00;0.62;0.00;0.00;0.62;4.00;2.80;;;26.80;30.00;;;;;;2252551;61;20399;-64
2021/08/25 00:30:28;0.00;0.00;0.62;0.00;0.00;0.62;4.70;3.40;;;26.80;30.00;;;;;;2253305;61;20356;-65
2021/08/25 00:33:14;0.00;0.00;0.62;0.00;0.00;0.62;3.10;2.47;;;26.80;30.00;;;;;;2253815;61;20391;-64
2021/08/25 00:35:59;0.00;0.00;0.62;0.00;0.00;0.62;4.13;2.90;;;26.80;30.00;;;;;;2253244;61;20503;-62
2021/08/25 00:38:43;0.00;0.00;0.62;0.00;0.00;0.62;3.20;2.60;;;26.80;30.00;;;;;;2253571;61;20387;-64
2021/08/25 00:41:28;0.00;0.00;0.62;0.00;0.00;0.62;3.60;2.90;;;26.80;30.00;;;;;;2253849;61;20356;-62
2021/08/25 00:44:13;0.00;0.00;0.62;0.00;0.00;0.62;3.97;2.90;;;26.80;30.00;;;;;;2253267;61;20760;-65
2021/08/25 00:46:58;0.00;0.00;0.62;0.00;0.00;0.62;4.50;3.20;;;26.70;30.00;;;;;;2253810;61;20435;-65
2021/08/25 00:49:45;0.00;0.00;0.62;0.00;0.00;0.62;3.70;3.03;;;26.70;30.00;;;;;;2253450;61;20395;-61
2021/08/25 00:52:29;0.00;0.00;0.62;0.00;0.00;0.62;3.53;2.43;;;26.70;30.00;;;;;;2253461;61;20606;-59
2021/08/25 00:55:15;0.00;0.00;0.62;0.00;0.00;0.62;3.43;2.73;;;26.70;30.10;;;;;;2253986;61;20367;-64
2021/08/25 00:58:00;0.00;0.00;0.62;0.00;0.00;0.62;4.10;2.93;;;26.70;30.10;;;;;;2253033;61;20419;-61
2021/08/25 01:00:52;0.00;0.00;0.62;0.00;0.00;0.62;3.60;2.60;;;26.70;30.10;;;;;;2253592;61;20728;-62
2021/08/25 01:03:43;0.00;0.00;0.62;0.00;0.00;0.62;3.37;2.80;;;26.70;30.20;;;;;;2253813;61;20779;-62
2021/08/25 01:06:30;0.00;0.00;0.62;0.00;0.00;0.62;3.40;2.87;;;26.70;30.20;;;;;;2253121;61;20368;-63
2021/08/25 01:09:15;0.00;0.00;0.62;0.00;0.00;0.62;3.53;2.77;;;26.70;30.20;;;;;;2253761;61;20624;-64
2021/08/25 01:12:01;0.00;0.00;0.62;0.00;0.00;0.62;3.27;2.80;;;26.70;30.20;;;;;;2253046;61;20376;-65
2021/08/25 01:14:45;0.00;0.00;0.62;0.00;0.00;0.62;4.00;2.80;;;26.70;30.20;;;;;;2253391;61;20359;-65
2021/08/25 01:17:29;0.00;0.00;0.62;0.00;0.00;0.62;3.30;2.43;;;26.70;30.30;;;;;;2253753;61;20375;-64
2021/08/25 01:20:14;0.00;0.00;0.62;0.00;0.00;0.62;3.63;2.73;;;26.70;30.30;;;;;;2253207;61;20724;-65
2021/08/25 01:23:01;0.00;0.00;0.62;0.00;0.00;0.62;3.90;2.87;;;26.70;30.30;;;;;;2253519;61;20570;-62
2021/08/25 01:25:46;0.00;0.00;0.62;0.00;0.00;0.62;4.00;3.17;;;26.70;30.30;;;;;;2253784;61;20728;-65
2021/08/25 01:28:40;0.00;0.00;0.62;0.00;0.00;0.62;4.83;3.27;;;26.60;30.20;;;;;;2253289;61;20408;-65
2021/08/25 01:31:28;0.00;0.00;0.62;0.00;0.00;0.62;4.67;3.20;;;26.60;30.20;;;;;;2253543;61;20584;-66
2021/08/25 01:34:12;0.00;0.00;0.62;0.00;0.00;0.62;4.40;2.90;;;26.60;30.20;;;;;;2253141;61;20448;-66
2021/08/25 01:36:57;0.00;0.00;0.62;0.00;0.00;0.62;3.43;2.73;;;26.60;30.20;;;;;;2252957;61;20391;-63
2021/08/25 01:39:42;0.00;0.00;0.62;0.00;0.00;0.62;3.10;2.47;;;26.60;30.20;;;;;;2253710;61;20400;-65
2021/08/25 01:42:27;0.00;0.00;0.62;0.00;0.00;0.62;3.33;2.90;;;26.60;30.20;;;;;;2252962;61;20462;-65
2021/08/25 01:45:12;0.00;0.00;0.62;0.00;0.00;0.62;2.93;2.40;;;26.60;30.20;;;;;;2253441;61;20372;-64
2021/08/25 01:47:57;0.00;0.00;0.62;0.00;0.00;0.62;3.60;2.67;;;26.60;30.20;;;;;;2253624;61;20375;-63
2021/08/25 01:50:42;0.00;0.00;0.62;0.00;0.00;0.62;4.60;2.90;;;26.60;30.30;;;;;;2253108;61;20364;-62
2021/08/25 01:53:27;0.00;0.00;0.62;0.00;0.00;0.62;3.47;3.00;;;26.60;30.20;;;;;;2253080;61;20434;-65
2021/08/25 01:56:11;0.00;0.00;0.62;0.00;0.00;0.62;4.83;3.30;;;26.50;30.10;;;;;;2253297;61;20617;-64
2021/08/25 01:58:58;0.00;0.00;0.62;0.00;0.00;0.62;3.60;2.90;;;26.50;30.10;;;;;;2253501;61;20419;-63
2021/08/25 02:01:43;0.00;0.00;0.62;0.00;0.00;0.62;3.93;2.73;;;26.50;30.00;;;;;;2253800;61;20367;-63
2021/08/25 02:04:28;0.00;0.00;0.62;0.00;0.00;0.62;4.17;3.10;;;26.50;30.00;;;;;;2253038;61;20399;-64
2021/08/25 02:07:13;0.00;0.00;0.62;0.00;0.00;0.62;3.67;2.73;;;26.50;30.00;;;;;;2252662;61;20819;-64
2021/08/25 02:09:57;0.00;0.00;0.62;0.00;0.00;0.62;3.87;2.70;;;26.50;30.00;;;;;;2253737;61;20360;-64
2021/08/25 02:12:42;0.00;0.00;0.62;0.00;0.00;0.62;3.63;2.80;;;26.50;30.00;;;;;;2253131;61;20383;-66
2021/08/25 02:15:26;0.00;0.00;0.62;0.00;0.00;0.62;4.57;3.20;;;26.50;30.10;;;;;;2253518;61;20375;-62
2021/08/25 02:18:11;0.00;0.00;0.62;0.00;0.00;0.62;3.73;2.80;;;26.40;30.10;;;;;;2253259;61;20462;-64
2021/08/25 02:20:57;0.00;0.00;0.62;0.00;0.00;0.62;3.47;2.73;;;26.40;30.10;;;;;;2253068;61;20716;-64
2021/08/25 02:23:42;0.00;0.00;0.62;0.00;0.00;0.62;4.53;2.70;;;26.40;30.10;;;;;;2253626;61;20372;-63
2021/08/25 02:26:27;0.00;0.00;0.62;0.00;0.00;0.62;3.80;3.30;;;26.40;30.10;;;;;;2252806;61;20360;-62
2021/08/25 02:29:11;0.00;0.00;0.62;0.00;0.00;0.62;3.83;3.00;;;26.40;30.10;;;;;;2253219;61;20415;-65
2021/08/25 02:31:56;0.00;0.00;0.62;0.00;0.00;0.62;3.30;2.70;;;26.40;30.20;;;;;;2253419;61;20396;-65
2021/08/25 02:34:40;0.00;0.00;0.62;0.00;0.00;0.62;3.93;2.70;;;26.30;30.10;;;;;;2252906;61;20545;-62
2021/08/25 02:37:26;0.00;0.00;0.62;0.00;0.00;0.62;3.80;2.83;;;26.40;30.20;;;;;;2253209;61;20415;-63
2021/08/25 02:40:12;0.00;0.00;0.62;0.00;0.00;0.62;3.33;2.80;;;26.30;30.20;;;;;;2253188;61;20371;-65
2021/08/25 02:42:56;0.00;0.00;0.62;0.00;0.00;0.62;4.43;3.37;;;26.30;30.20;;;;;;2252927;61;20383;-62
2021/08/25 02:45:41;0.00;0.00;0.62;0.00;0.00;0.62;3.97;2.90;;;26.30;30.20;;;;;;2253659;61;20384;-61
2021/08/25 02:48:25;0.00;0.00;0.62;0.00;0.00;0.62;3.03;2.37;;;26.30;30.20;;;;;;2252346;61;20375;-65
2021/08/25 02:51:10;0.00;0.00;0.62;0.00;0.00;0.62;3.50;2.63;;;26.30;30.20;;;;;;2253102;61;20627;-65
2021/08/25 02:53:56;0.00;0.00;0.62;0.00;0.00;0.62;4.83;3.17;;;26.30;30.20;;;;;;2253370;61;20387;-63
2021/08/25 02:56:41;0.00;0.00;0.62;0.00;0.00;0.62;3.17;2.33;;;26.30;30.20;;;;;;2253088;61;20434;-62
2021/08/25 02:59:25;0.00;0.00;0.62;0.00;0.00;0.62;4.20;2.93;;;26.30;30.20;;;;;;2253269;61;20359;-61
2021/08/25 03:02:10;0.00;0.00;0.62;0.00;0.00;0.62;4.20;3.20;;;26.30;30.20;;;;;;2253089;61;20363;-65
2021/08/25 03:04:54;0.00;0.00;0.62;0.00;0.00;0.62;3.57;2.80;;;26.30;30.20;;;;;;2252885;61;20599;-63
2021/08/25 03:07:39;0.00;0.00;0.62;0.00;0.00;0.62;3.90;2.97;;;26.30;30.20;;;;;;2253405;61;20605;-62
2021/08/25 03:10:25;0.00;0.00;0.62;0.00;0.00;0.62;3.13;2.53;;;26.20;30.20;;;;;;2252851;61;20395;-65
2021/08/25 03:13:09;0.00;0.00;0.62;0.00;0.00;0.62;3.37;2.90;;;26.20;30.20;;;;;;2253126;61;20464;-64
2021/08/25 03:15:54;0.00;0.00;0.62;0.00;0.00;0.62;3.87;3.10;;;26.20;30.20;;;;;;2253337;61;20402;-63
2021/08/25 03:18:38;0.00;0.00;0.62;0.00;0.00;0.62;3.63;2.63;;;26.20;30.20;;;;;;2252771;61;20456;-65
2021/08/25 03:21:23;0.00;0.00;0.62;0.00;0.00;0.62;2.90;2.50;;;26.20;30.20;;;;;;2253211;61;20588;-62
2021/08/25 03:24:08;0.00;0.00;0.62;0.00;0.00;0.62;3.97;2.90;;;26.20;30.20;;;;;;2253338;61;20363;-61
2021/08/25 03:26:54;0.00;0.00;0.62;0.00;0.00;0.62;3.40;2.67;;;26.20;30.30;;;;;;2252921;61;20360;-65
2021/08/25 03:29:38;0.00;0.00;0.62;0.00;0.00;0.62;3.87;3.33;;;26.20;30.30;;;;;;2253424;61;20457;-63
2021/08/25 03:32:23;0.00;0.00;0.62;0.00;0.00;0.62;3.97;2.67;;;26.20;30.30;;;;;;2252778;61;20382;-64
2021/08/25 03:35:08;0.00;0.00;0.62;0.00;0.00;0.62;3.20;2.60;;;26.10;30.30;;;;;;2252807;61;20360;-64
2021/08/25 03:37:53;0.00;0.00;0.62;0.00;0.00;0.62;2.63;1.93;;;26.20;30.40;;;;;;2253255;61;20419;-65
2021/08/25 03:40:37;0.00;0.00;0.62;0.00;0.00;0.62;3.23;2.33;;;26.20;30.40;;;;;;2252721;61;20453;-65
2021/08/25 03:43:23;0.00;0.00;0.62;0.00;0.00;0.62;3.67;2.33;;;26.10;30.40;;;;;;2252994;61;20356;-63
2021/08/25 03:46:07;0.00;0.00;0.62;0.00;0.00;0.62;4.23;2.90;;;26.10;30.40;;;;;;2252843;61;20376;-64
2021/08/25 03:48:52;0.00;0.00;0.62;0.00;0.00;0.62;4.20;3.33;;;26.10;30.40;;;;;;2252658;61;20407;-63
2021/08/25 03:51:36;0.00;0.00;0.62;0.00;0.00;0.62;3.43;2.53;;;26.10;30.40;;;;;;2253025;61;20371;-62
2021/08/25 03:54:21;0.00;0.00;0.62;0.00;0.00;0.62;4.13;2.30;;;26.10;30.40;;;;;;2252878;61;20921;-63
2021/08/25 03:57:05;0.00;0.00;0.62;0.00;0.00;0.62;3.50;2.77;;;26.10;30.40;;;;;;2252637;61;20414;-65
2021/08/25 03:59:51;0.00;0.00;0.62;0.00;0.00;0.62;4.00;2.67;;;26.10;30.50;;;;;;2253303;61;20759;-63
2021/08/25 04:02:35;0.00;0.00;0.62;0.00;0.00;0.62;3.63;2.80;;;26.10;30.50;;;;;;2252686;61;20367;-64
2021/08/25 04:05:20;0.00;0.00;0.62;0.00;0.00;0.62;4.20;3.00;;;26.10;30.60;;;;;;2253303;61;20414;-63
2021/08/25 04:08:05;0.00;0.00;0.62;0.00;0.00;0.62;2.90;2.03;;;26.00;30.40;;;;;;2253845;61;20630;-63
2021/08/25 04:10:50;0.00;0.00;0.62;0.00;0.00;0.62;3.07;2.77;;;26.00;30.50;;;;;;2253322;61;20402;-64
2021/08/25 04:13:35;0.00;0.00;0.62;0.00;0.00;0.62;3.40;2.70;;;26.00;30.50;;;;;;2253461;61;20779;-65
2021/08/25 04:16:20;0.00;0.00;0.62;0.00;0.00;0.62;3.30;2.53;;;26.00;30.50;;;;;;2253414;61;20360;-62
2021/08/25 04:19:05;0.00;0.00;0.62;0.00;0.00;0.62;3.53;2.60;;;26.00;30.50;;;;;;2253299;61;20402;-63
2021/08/25 04:21:49;0.00;0.00;0.62;0.00;0.00;0.62;2.90;2.43;;;26.00;30.50;;;;;;2254021;61;20363;-61
2021/08/25 04:24:36;0.00;0.00;0.62;0.00;0.00;0.62;3.60;2.70;;;26.00;30.50;;;;;;2253284;61;20400;-64
2021/08/25 04:27:23;0.00;0.00;0.62;0.00;0.00;0.62;3.37;3.03;;;26.00;30.50;;;;;;2253438;61;20383;-65
2021/08/25 04:30:09;0.00;0.00;0.62;0.00;0.00;0.62;4.87;3.03;;;26.00;30.60;;;;;;2253971;61;20363;-63
2021/08/25 04:32:55;0.00;0.00;0.62;0.00;0.00;0.62;3.63;2.70;;;26.00;30.60;;;;;;2253087;61;20387;-62
2021/08/25 04:35:40;0.00;0.00;0.62;0.00;0.00;0.62;3.10;2.60;;;26.00;30.60;;;;;;2253576;61;20376;-65
2021/08/25 04:38:24;0.00;0.00;0.62;0.00;0.00;0.62;3.53;2.80;;;26.00;30.70;;;;;;2253577;61;20499;-65
2021/08/25 04:41:10;0.00;0.00;0.62;0.00;0.00;0.62;3.60;2.73;;;26.00;30.70;;;;;;2253153;61;20410;-64
2021/08/25 04:43:56;0.00;0.00;0.62;0.00;0.00;0.62;3.17;2.70;;;26.00;30.70;;;;;;2254016;61;20407;-65
2021/08/25 04:46:41;0.00;0.00;0.62;0.00;0.00;0.62;3.40;2.57;;;26.00;30.70;;;;;;2253099;61;20396;-62
2021/08/25 04:49:27;0.00;0.00;0.62;0.00;0.00;0.62;3.40;2.50;;;26.00;30.70;;;;;;2252992;61;20395;-63
2021/08/25 04:52:13;0.00;0.00;0.62;0.00;0.00;0.62;4.70;3.60;;;25.90;30.60;;;;;;2253681;61;20364;-62
2021/08/25 04:54:58;0.00;0.00;0.62;0.00;0.00;0.62;3.20;2.40;;;25.90;30.60;;;;;;2253032;61;20400;-62
2021/08/25 04:57:42;0.00;0.00;0.62;0.00;0.00;0.62;2.97;2.27;;;25.90;30.60;;;;;;2253450;61;20568;-65
2021/08/25 05:00:27;0.00;0.00;0.62;0.00;0.00;0.62;3.57;2.63;;;25.90;30.60;;;;;;2253789;61;20364;-64
2021/08/25 05:03:11;0.00;0.00;0.62;0.00;0.00;0.62;3.20;2.87;;;25.90;30.60;;;;;;2253110;61;20356;-64
2021/08/25 05:05:57;0.00;0.00;0.62;0.00;0.00;0.62;4.40;3.10;;;25.90;30.60;;;;;;2253803;61;20715;-63
2021/08/25 05:08:41;0.00;0.00;0.62;0.00;0.00;0.62;5.00;2.63;;;25.80;30.50;;;;;;2253305;61;20386;-65
2021/08/25 05:11:26;0.00;0.00;0.62;0.00;0.00;0.62;4.70;2.90;;;25.80;30.50;;;;;;2253367;61;20632;-63
2021/08/25 05:14:10;0.00;0.00;0.62;0.00;0.00;0.62;3.87;2.80;;;25.80;30.50;;;;;;2253293;61;20423;-61
2021/08/25 05:16:55;0.00;0.00;0.62;0.00;0.00;0.62;5.47;3.77;;;25.90;30.60;;;;;;2252675;61;20371;-64
2021/08/25 05:19:39;0.00;0.00;0.62;0.00;0.00;0.62;3.80;2.70;;;25.80;30.50;;;;;;2253422;61;20394;-66
2021/08/25 05:22:25;0.00;0.00;0.62;0.00;0.00;0.62;3.60;2.70;;;25.80;30.50;;;;;;2253812;61;20359;-62
2021/08/25 05:25:10;0.00;0.00;0.62;0.00;0.00;0.62;4.13;2.80;;;25.80;30.50;;;;;;2253480;61;20724;-63
2021/08/25 05:27:55;0.00;0.00;0.62;0.00;0.00;0.62;6.10;3.00;;;25.80;30.50;;;;;;2253749;61;20611;-64
2021/08/25 05:30:39;0.00;0.00;0.62;0.00;0.00;0.62;4.30;3.00;;;25.80;30.50;;;;;;2253271;61;20601;-64
2021/08/25 05:33:24;0.00;0.00;0.62;0.00;0.00;0.62;6.63;2.93;;;25.80;30.60;;;;;;2253275;61;20668;-61
2021/08/25 05:36:08;0.00;0.00;0.62;0.00;0.00;0.62;5.40;3.47;;;25.70;30.50;;;;;;2253730;61;20399;-66
2021/08/25 05:38:54;0.00;0.00;0.62;0.00;0.00;0.62;4.50;2.20;;;25.70;30.50;;;;;;2253017;61;20641;-68
2021/08/25 05:41:38;0.00;0.00;0.62;0.00;0.00;0.62;4.50;2.93;;;25.70;30.50;;;;;;2253419;61;20732;-66
2021/08/25 05:44:23;0.00;0.00;0.62;0.00;0.00;0.62;3.70;2.70;;;25.70;30.50;;;;;;2253700;61;20372;-65
2021/08/25 05:47:08;0.00;0.00;0.62;0.00;0.00;0.62;5.03;2.70;;;25.70;30.50;;;;;;2253047;61;20383;-64
2021/08/25 05:49:52;0.00;0.00;0.62;0.00;0.00;0.62;4.50;3.00;;;25.70;30.50;;;;;;2253707;61;20395;-67
2021/08/25 05:52:37;0.00;0.00;0.62;0.00;0.00;0.62;3.30;2.73;;;25.70;30.50;;;;;;2253311;61;20384;-67
2021/08/25 05:55:23;0.00;0.00;0.62;0.00;0.00;0.62;4.10;3.17;;;25.70;30.50;;;;;;2253112;61;20376;-66
2021/08/25 05:58:07;0.00;0.00;0.62;0.00;0.00;0.62;6.93;3.23;;;25.70;30.50;;;;;;2253478;61;20387;-63
2021/08/25 06:00:52;0.00;0.00;0.62;0.00;0.00;0.62;4.73;3.53;;;25.70;30.50;;;;;;2253130;61;20411;-68
2021/08/25 06:03:36;0.00;0.00;0.62;0.00;0.00;0.62;6.03;3.97;;;25.70;30.50;;;;;;2253459;61;20414;-67
2021/08/25 06:06:21;0.00;0.00;0.62;0.00;0.00;0.62;5.00;3.80;;;25.70;30.50;;;;;;2253542;61;20488;-69
2021/08/25 06:09:05;0.00;0.00;0.62;0.00;0.00;0.62;5.03;3.53;;;25.60;30.40;;;;;;2253079;61;20775;-67
2021/08/25 06:11:51;0.00;0.00;0.62;0.00;0.00;0.62;4.57;3.50;;;25.50;30.30;;;;;;2253227;61;20368;-66
2021/08/25 06:14:38;0.00;0.00;0.62;0.00;0.00;0.62;7.03;3.40;;;25.40;30.30;;;;;;2253299;61;20364;-66
2021/08/25 06:17:23;0.00;0.00;0.62;0.00;0.00;0.62;5.97;3.97;;;25.40;30.30;;;;;;2252521;61;20659;-66
2021/08/25 06:20:09;0.00;0.00;0.62;0.00;0.00;0.62;4.67;3.40;;;25.30;30.20;;;;;;2253676;61;20360;-70
2021/08/25 06:22:54;0.00;0.00;0.62;0.00;0.00;0.62;4.10;3.07;;;25.30;30.30;;;;;;2253100;61;20363;-66
2021/08/25 06:25:40;0.00;0.00;0.62;0.00;0.00;0.62;4.27;3.50;;;25.20;30.40;;;;;;2253262;61;20724;-68
2021/08/25 06:28:26;0.00;0.00;0.62;0.00;0.00;0.62;4.07;3.27;;;25.20;30.50;;;;;;2253544;61;20379;-69
2021/08/25 06:31:10;0.00;0.00;0.62;0.00;0.00;0.62;4.83;3.27;;;25.20;30.40;;;;;;2252879;61;20363;-70
2021/08/25 06:33:55;0.00;0.00;0.62;0.00;0.00;0.62;5.20;3.30;;;25.10;30.50;;;;;;2253163;61;20432;-66
2021/08/25 06:36:39;0.00;0.00;0.62;0.00;0.00;0.62;5.97;3.57;;;25.10;30.60;;;;;;2253018;61;20711;-66
2021/08/25 06:39:24;0.00;0.00;0.62;0.00;0.00;0.62;5.40;3.70;;;25.10;30.70;;;;;;2252917;61;20723;-65
2021/08/25 06:42:09;0.00;0.00;0.62;0.00;0.00;0.62;4.63;3.53;;;25.10;30.80;;;;;;2253599;61;20352;-67
2021/08/25 06:44:55;0.00;0.00;0.62;0.00;0.00;0.62;5.40;4.00;;;25.00;30.80;;;;;;2253283;61;20367;-69
2021/08/25 06:47:40;0.00;0.00;0.62;0.00;0.00;0.62;6.27;4.30;;;25.00;30.80;;;;;;2253023;61;20735;-66
2021/08/25 06:50:24;0.00;0.00;0.62;0.00;0.00;0.62;5.60;4.33;;;24.90;30.70;;;;;;2253522;61;20395;-68
2021/08/25 06:53:09;0.00;0.00;0.62;0.00;0.00;0.62;4.77;3.37;;;24.90;30.80;;;;;;2252785;61;20371;-69
2021/08/25 06:55:53;0.00;0.00;0.62;0.00;0.00;0.62;4.70;3.80;;;24.90;30.90;;;;;;2253165;61;20788;-68
2021/08/25 06:58:38;0.00;0.00;0.62;0.00;0.00;0.62;4.43;3.43;;;24.90;31.00;;;;;;2253459;61;20747;-66
2021/08/25 07:01:25;0.00;0.00;0.62;0.00;0.00;0.62;5.10;3.80;;;24.80;30.90;;;;;;2253274;61;20368;-70
2021/08/25 07:03:51;0.00;0.00;0.62;0.00;0.00;0.62;3.80;3.40;;;24.80;31.00;;;;;;2253207;61;20740;-66
2021/08/25 07:06:35;0.00;0.00;0.62;0.00;0.00;0.62;6.67;3.90;;;24.80;31.10;;;;;;2252645;61;20403;-68
2021/08/25 07:09:20;0.00;0.00;0.62;0.00;0.00;0.62;5.73;3.70;;;24.80;31.10;;;;;;2252843;61;20444;-66
2021/08/25 07:12:05;0.00;0.00;0.62;0.00;0.00;0.62;7.00;3.67;;;24.80;31.20;;;;;;2253387;61;20407;-67
2021/08/25 07:14:51;0.00;0.00;0.62;0.00;0.00;0.62;5.90;4.50;;;24.70;31.10;;;;;;2252737;61;20380;-68
2021/08/25 07:17:36;0.00;0.00;0.62;0.00;0.00;0.62;6.17;3.23;;;24.70;31.20;;;;;;2252621;61;20400;-65
2021/08/25 07:20:21;0.00;0.00;0.62;0.00;0.00;0.62;4.83;3.80;;;24.70;31.40;;;;;;2253504;61;20367;-69
2021/08/25 07:23:06;0.00;0.00;0.62;0.00;0.00;0.62;4.13;3.50;;;24.70;31.40;;;;;;2252833;61;20585;-68
2021/08/25 07:25:50;0.00;0.00;0.62;0.00;0.00;0.62;5.60;3.57;;;24.60;31.40;;;;;;2253035;61;20359;-69
2021/08/25 07:28:35;0.00;0.00;0.62;0.00;0.00;0.62;6.00;3.33;;;24.60;31.40;;;;;;2253121;61;20452;-69
2021/08/25 07:31:19;0.00;0.00;0.62;0.00;0.00;0.62;4.33;3.33;;;24.60;31.50;;;;;;2252729;61;20363;-65
2021/08/25 07:34:05;0.00;0.00;0.62;0.00;0.00;0.62;5.70;3.93;;;24.50;31.40;;;;;;2253245;61;20430;-68
2021/08/25 07:36:49;0.00;0.00;0.62;0.00;0.00;0.62;5.60;3.77;;;24.50;31.60;;;;;;2252658;61;20379;-68
2021/08/25 07:39:34;0.00;0.00;0.62;0.00;0.00;0.62;5.23;3.80;;;24.50;31.70;;;;;;2253283;61;20367;-68
2021/08/25 07:42:18;0.00;0.00;0.62;0.00;0.00;0.62;5.30;4.00;;;24.40;31.70;;;;;;2254054;61;20419;-68
2021/08/25 07:45:04;0.00;0.00;0.62;0.00;0.00;0.62;4.43;3.20;;;24.40;31.80;;;;;;2253541;61;20734;-69
2021/08/25 07:47:48;0.00;0.00;0.62;0.00;0.00;0.62;7.80;4.27;;;24.40;31.80;;;;;;2253708;61;20479;-65
2021/08/25 07:50:34;0.00;0.00;0.62;0.00;0.00;0.62;4.90;4.17;;;24.40;31.90;;;;;;2254090;61;20367;-67
2021/08/25 07:53:20;0.00;0.00;0.62;0.00;0.00;0.62;5.17;3.70;;;24.30;31.90;;;;;;2253488;61;20387;-70
2021/08/25 07:56:05;0.00;0.00;0.62;0.00;0.00;0.62;4.53;3.27;;;24.30;31.90;;;;;;2253980;61;20595;-67
2021/08/25 07:58:50;0.00;0.00;0.62;0.00;0.00;0.62;3.93;3.47;;;24.30;32.00;;;;;;2253743;61;20402;-68
2021/08/25 08:01:34;0.00;0.00;0.62;0.00;0.00;0.62;5.63;3.63;;;24.30;32.10;;;;;;2253772;61;20626;-68
2021/08/25 08:04:19;0.00;0.00;0.62;0.00;0.00;0.62;13.80;3.97;;;24.30;32.20;;;;;;2253981;61;20410;-68
2021/08/25 08:07:05;0.00;0.00;0.62;0.00;0.00;0.62;5.03;3.73;;;24.30;32.30;;;;;;2253383;61;20665;-67
2021/08/25 08:09:50;0.00;0.00;0.62;0.00;0.00;0.62;5.57;3.77;;;24.30;32.30;;;;;;2253745;61;20363;-68
2021/08/25 08:12:34;0.00;0.00;0.62;0.00;0.00;0.62;4.93;3.87;;;24.30;32.30;;;;;;2253918;61;20638;-67
2021/08/25 08:15:19;0.00;0.00;0.62;0.00;0.00;0.62;6.93;4.10;;;24.30;32.30;;;;;;2253204;61;20590;-67
2021/08/25 08:18:13;0.00;0.00;0.62;0.00;0.00;0.62;4.17;3.27;;;24.30;32.20;;;;;;2253946;61;20379;-68
2021/08/25 08:20:58;0.00;0.00;0.62;0.00;0.00;0.62;6.27;3.83;;;24.30;32.20;;;;;;2253725;61;20363;-67
2021/08/25 08:23:44;0.00;0.00;0.62;0.00;0.00;0.62;3.67;2.73;;;24.30;32.30;;;;;;2253678;61;20636;-68
2021/08/25 08:26:29;0.00;0.00;0.62;0.00;0.00;0.62;4.27;3.03;;;24.30;32.30;;;;;;2253889;61;20355;-65
2021/08/25 08:29:13;0.00;0.00;0.62;0.00;0.00;0.62;4.17;3.20;;;24.30;32.30;;;;;;2253550;61;20712;-68
2021/08/25 08:31:58;0.00;0.00;0.62;0.00;0.00;0.62;5.30;3.70;;;24.30;32.30;;;;;;2253418;61;20366;-65
2021/08/25 08:34:43;0.00;0.00;0.62;0.00;0.00;0.62;5.40;3.70;;;24.30;32.30;;;;;;2253929;61;20347;-65
2021/08/25 08:37:27;0.00;0.00;0.62;0.00;0.00;0.62;4.80;3.63;;;24.30;32.20;;;;;;2253371;61;20383;-66
2021/08/25 08:40:14;0.00;0.00;0.62;0.00;0.00;0.62;6.70;3.37;;;24.30;32.30;;;;;;2253992;61;20587;-65
2021/08/25 08:43:05;0.00;0.00;0.62;0.00;0.00;0.62;5.50;3.43;;;24.30;32.30;;;;;;2253637;61;20352;-68
2021/08/25 08:45:50;0.00;0.00;0.62;0.00;0.00;0.62;5.50;3.50;;;24.30;32.30;;;;;;2253589;61;20425;-66
2021/08/25 08:48:34;0.00;0.00;0.62;0.00;0.00;0.62;6.07;3.80;;;24.30;32.30;;;;;;2254005;61;20380;-68
2021/08/25 08:51:22;0.00;0.00;0.62;0.00;0.00;0.62;4.80;3.97;;;24.30;32.30;;;;;;2253070;61;20363;-64
2021/08/25 08:54:06;0.00;0.00;0.62;0.00;0.00;0.62;4.47;3.60;;;24.30;32.40;;;;;;2253453;61;20729;-69
2021/08/25 08:56:52;0.00;0.00;0.62;0.00;0.00;0.62;5.67;3.73;;;24.30;32.40;;;;;;2253844;61;20589;-66
2021/08/25 08:59:36;0.00;0.00;0.62;0.00;0.00;0.62;5.97;4.00;;;24.30;32.40;;;;;;2253274;61;20352;-67
2021/08/25 09:02:41;0.00;0.00;0.62;0.00;0.00;0.62;7.17;3.57;;;24.30;32.50;;;;;;2253782;61;20403;-68
2021/08/25 09:05:28;0.00;0.00;0.62;0.00;0.00;0.62;4.57;3.73;;;24.30;32.60;;;;;;2253768;61;20399;-65
2021/08/25 09:08:12;0.00;0.00;0.62;0.00;0.00;0.62;6.10;4.00;;;24.30;32.70;;;;;;2253068;61;20387;-68
2021/08/25 09:11:04;0.00;0.00;0.62;0.00;0.00;0.62;4.07;2.97;;;24.30;32.70;;;;;;2253826;61;20372;-68
2021/08/25 09:13:51;0.00;0.00;0.62;0.00;0.00;0.62;4.30;3.27;;;24.30;32.80;;;;;;2253069;61;20391;-68
2021/08/25 09:16:36;0.00;0.00;0.62;0.00;0.00;0.62;4.33;3.50;;;24.30;32.80;;;;;;2253541;61;20548;-66
2021/08/25 09:19:25;0.00;0.00;0.62;0.00;0.00;0.62;5.47;3.97;;;24.30;32.70;;;;;;2253452;61;20363;-67
2021/08/25 09:22:19;0.00;0.00;0.62;0.00;0.00;0.62;4.90;3.57;;;24.40;32.80;;;;;;2253340;61;20363;-65
2021/08/25 09:25:05;0.00;0.00;0.62;0.00;0.00;0.62;5.70;3.57;;;24.40;32.70;;;;;;2253882;61;20367;-67
2021/08/25 09:27:52;0.00;0.00;0.62;0.00;0.00;0.62;3.90;3.27;;;24.40;32.60;;;;;;2253157;61;20379;-66
2021/08/25 09:30:53;0.00;0.00;0.62;0.00;0.00;0.62;5.27;3.40;;;24.40;32.50;;;;;;2253485;61;20363;-66
2021/08/25 09:33:43;0.00;0.00;0.62;0.00;0.00;0.62;5.90;4.10;;;24.50;32.60;;;;;;2253638;61;20411;-64
2021/08/25 09:36:27;0.00;0.00;0.62;0.00;0.00;0.62;6.33;4.43;;;24.50;32.50;;;;;;2253116;61;20411;-65
2021/08/25 09:39:21;0.00;0.00;0.62;0.00;0.00;0.62;4.90;3.80;;;24.50;32.40;;;;;;2253439;61;20360;-67
2021/08/25 09:42:06;0.00;0.00;0.62;0.00;0.00;0.62;6.53;3.30;;;24.50;32.40;;;;;;2253567;61;20373;-69
2021/08/25 09:45:00;0.00;0.00;0.62;0.00;0.00;0.62;6.07;3.53;;;24.50;32.40;;;;;;2252883;61;20360;-66
2021/08/25 09:47:52;0.00;0.00;0.62;0.00;0.00;0.62;5.47;4.00;;;24.60;32.50;;;;;;2253693;61;20379;-66
2021/08/25 09:50:37;0.00;0.00;0.62;0.00;0.00;0.62;4.93;3.43;;;24.60;32.40;;;;;;2253078;61;20449;-67
2021/08/25 09:53:21;0.00;0.00;0.62;0.00;0.00;0.62;5.43;3.73;;;24.60;32.40;;;;;;2253412;61;20684;-68
2021/08/25 09:56:28;0.00;0.00;0.62;0.00;0.00;0.62;6.40;3.40;;;24.70;32.40;;;;;;2253738;61;20608;-65
2021/08/25 09:59:14;0.00;0.00;0.62;0.00;0.00;0.62;4.00;2.93;;;24.70;32.40;;;;;;2253092;61;20356;-69
2021/08/25 10:02:02;0.00;0.00;0.62;0.00;0.00;0.62;5.73;3.80;;;24.70;32.40;;;;;;2253368;61;20588;-68
2021/08/25 10:04:47;0.00;0.00;0.62;0.00;0.00;0.62;4.90;3.80;;;24.80;32.40;;;;;;2253131;61;20441;-69
2021/08/25 10:07:34;0.00;0.00;0.62;0.00;0.00;0.62;3.63;3.03;;;24.80;32.50;;;;;;2253234;61;20387;-70
2021/08/25 10:10:21;0.00;0.00;0.62;0.00;0.00;0.62;4.50;2.83;;;24.80;32.40;;;;;;2253661;61;20363;-66
2021/08/25 10:13:05;0.00;0.00;0.62;0.00;0.00;0.62;4.43;3.70;;;24.90;32.50;;;;;;2252886;61;20430;-65
2021/08/25 10:15:50;0.00;0.00;0.62;0.00;0.00;0.62;6.50;4.20;;;24.90;32.40;;;;;;2253280;61;20610;-63
2021/08/25 10:18:37;0.00;0.00;0.62;0.00;0.00;0.62;6.60;4.03;;;24.90;32.50;;;;;;2253508;61;20596;-65
2021/08/25 10:21:43;0.00;0.00;0.62;0.00;0.00;0.62;5.60;3.50;;;24.90;32.60;;;;;;2253089;61;20363;-64
2021/08/25 10:25:01;0.00;0.00;0.62;0.00;0.00;0.62;4.50;3.23;;;25.00;32.60;;;;;;2253705;61;20367;-63
2021/08/25 10:28:03;0.00;0.00;0.62;0.00;0.00;0.62;5.93;3.40;;;25.00;32.60;;;;;;2252700;61;20598;-66
2021/08/25 10:30:54;0.00;0.00;0.62;0.00;0.00;0.62;4.60;2.90;;;25.00;32.70;;;;;;2253386;61;20362;-64
2021/08/25 10:34:11;0.00;0.00;0.62;0.00;0.00;0.62;4.17;2.47;;;25.10;32.80;;;;;;2253062;61;20466;-65
2021/08/25 10:37:27;0.00;0.00;0.62;0.00;0.00;0.62;4.43;3.13;;;25.20;32.80;;;;;;2253194;61;20403;-64
2021/08/25 10:40:13;0.00;0.00;0.62;0.00;0.00;0.62;4.10;2.80;;;25.20;32.90;;;;;;2253678;61;20388;-64
2021/08/25 10:43:02;0.00;0.00;0.62;0.00;0.00;0.62;3.63;2.80;;;25.30;32.90;;;;;;2253108;61;20752;-64
2021/08/25 10:45:56;0.00;0.00;0.62;0.00;0.00;0.62;5.20;2.80;;;25.30;32.90;;;;;;2253242;61;20399;-64
2021/08/25 10:48:53;0.00;0.00;0.62;0.00;0.00;0.62;3.43;2.57;;;25.40;32.90;;;;;;2253272;61;20472;-62
2021/08/25 10:51:40;0.00;0.00;0.62;0.00;0.00;0.62;3.97;2.70;;;25.40;32.90;;;;;;2253152;61;20363;-61
2021/08/25 10:54:26;0.00;0.00;0.62;0.00;0.00;0.62;3.77;3.10;;;25.50;32.90;;;;;;2253451;61;20403;-62